Time;durP1;ratioP1;P1;durP2;ratioP2;P2;SDS_P1;SDS_P2;PMS_P1;PMS_P2;Temp;Humidity;BMP_temperature;BMP_pressure;BME280_temperature;BME280_humidity;BME280_pressure;Samples;Min_cycle;Max_cycle;Signal;HPM_P1;HPM_P2
2021/05/11 00:00:06;;;;;;;3.77;3.43;;;12.10;99.90;;;;;;481072;247;28822;-70
2021/05/11 00:02:08;;;;;;;3.60;3.30;;;12.10;99.90;;;;;;481075;247;28572;-70
2021/05/11 00:04:09;;;;;;;3.73;3.43;;;12.10;99.90;;;;;;481086;247;28287;-71
2021/05/11 00:06:10;;;;;;;3.20;3.00;;;12.10;99.90;;;;;;481064;247;28545;-70
2021/05/11 00:08:11;;;;;;;3.90;3.60;;;12.00;99.90;;;;;;481088;247;28156;-70
2021/05/11 00:10:13;;;;;;;3.60;3.30;;;11.90;99.90;;;;;;481062;247;28209;-70
2021/05/11 00:12:14;;;;;;;4.07;3.77;;;12.00;99.90;;;;;;481062;247;28509;-70
2021/05/11 00:14:15;;;;;;;3.70;3.40;;;12.00;99.90;;;;;;481065;247;28290;-71
2021/05/11 00:16:16;;;;;;;4.40;4.00;;;12.00;99.90;;;;;;481082;247;28494;-71
2021/05/11 00:18:18;;;;;;;3.50;3.20;;;12.00;99.90;;;;;;481065;247;28471;-70
2021/05/11 00:20:19;;;;;;;3.63;3.33;;;11.90;99.90;;;;;;481058;247;30289;-70
2021/05/11 00:22:20;;;;;;;4.30;3.90;;;12.00;99.90;;;;;;481070;247;29213;-71
2021/05/11 00:24:23;;;;;;;3.80;3.50;;;;;;;;;;481101;247;28825;-70
2021/05/11 00:26:24;;;;;;;3.53;3.30;;;11.90;99.90;;;;;;481102;247;26987;-70
2021/05/11 00:28:25;;;;;;;3.30;3.00;;;12.00;99.90;;;;;;481106;247;28377;-70
2021/05/11 00:30:26;;;;;;;3.30;3.00;;;12.00;99.90;;;;;;481056;247;28277;-71
2021/05/11 00:32:27;;;;;;;3.30;3.10;;;12.00;99.90;;;;;;481083;247;29299;-72
2021/05/11 00:34:29;;;;;;;3.50;3.20;;;12.00;99.90;;;;;;480977;247;29221;-71
2021/05/11 00:36:30;;;;;;;3.50;3.20;;;12.10;99.90;;;;;;481085;247;29490;-71
2021/05/11 00:38:31;;;;;;;4.20;3.67;;;12.00;99.90;;;;;;481072;247;28566;-70
2021/05/11 00:40:32;;;;;;;5.80;5.20;;;12.00;99.90;;;;;;481062;247;28020;-71
2021/05/11 00:42:34;;;;;;;4.30;3.90;;;12.00;99.90;;;;;;481073;247;28908;-73
2021/05/11 00:44:35;;;;;;;4.60;4.20;;;11.90;99.90;;;;;;481070;247;28569;-70
2021/05/11 00:46:36;;;;;;;4.50;4.10;;;11.90;99.90;;;;;;481066;247;28304;-71
2021/05/11 00:48:37;;;;;;;8.70;4.40;;;12.00;99.90;;;;;;481058;247;28549;-70
2021/05/11 00:50:39;;;;;;;4.10;3.80;;;12.00;99.90;;;;;;481030;247;28438;-70
2021/05/11 00:52:40;;;;;;;4.37;4.07;;;12.00;99.90;;;;;;481073;247;28559;-72
2021/05/11 00:54:41;;;;;;;4.40;4.00;;;12.00;99.90;;;;;;481055;247;29080;-70
2021/05/11 00:56:43;;;;;;;4.00;3.60;;;12.00;99.90;;;;;;481068;247;28921;-71
2021/05/11 00:58:44;;;;;;;5.53;5.03;;;12.00;99.90;;;;;;481075;247;28910;-70
2021/05/11 01:00:45;;;;;;;4.80;4.40;;;12.00;99.90;;;;;;481046;247;28382;-70
2021/05/11 01:02:46;;;;;;;4.70;4.30;;;12.00;99.90;;;;;;481085;247;28031;-72
2021/05/11 01:04:48;;;;;;;4.30;3.90;;;12.10;99.90;;;;;;481079;247;28288;-71
2021/05/11 01:06:49;;;;;;;5.50;5.00;;;12.00;99.90;;;;;;481077;247;28340;-71
2021/05/11 01:08:50;;;;;;;4.80;4.40;;;12.00;99.90;;;;;;481010;247;28573;-71
2021/05/11 01:10:51;;;;;;;5.70;5.20;;;12.00;99.90;;;;;;481044;247;29143;-70
2021/05/11 01:12:53;;;;;;;4.50;4.10;;;12.00;99.90;;;;;;480988;247;28669;-72
2021/05/11 01:14:54;;;;;;;5.27;4.77;;;12.00;99.90;;;;;;481069;247;28249;-70
2021/05/11 01:16:57;;;;;;;5.20;4.70;;;12.00;99.90;;;;;;481017;247;28695;-71
2021/05/11 01:19:01;;;;;;;4.47;4.07;;;12.00;99.90;;;;;;480918;247;28682;-70
2021/05/11 01:21:03;;;;;;;4.30;3.90;;;12.00;99.90;;;;;;480626;247;28809;-70
2021/05/11 01:23:31;;;;;;;5.03;4.53;;;11.90;99.90;;;;;;480505;247;28802;-72
2021/05/11 01:25:20;;;;;;;5.13;4.63;;;12.00;99.90;;;;;;479062;247;28094;-71
2021/05/11 01:27:31;;;;;;;4.73;4.30;;;11.90;99.90;;;;;;480230;247;28284;-71
2021/05/11 01:29:24;;;;;;;5.13;4.73;;;11.90;99.90;;;;;;479306;247;28445;-70
2021/05/11 01:43:56;;;;;;;4.63;4.20;;;11.90;99.90;;;;;;481065;247;28591;-72
2021/05/11 01:45:20;;;;;;;4.20;3.80;;;11.90;99.90;;;;;;481077;247;28076;-71
2021/05/11 01:51:50;;;;;;;4.30;3.90;;;11.90;99.90;;;;;;481047;247;29338;-70
2021/05/11 01:56:17;;;;;;;4.87;3.97;;;11.80;99.90;;;;;;481042;247;28645;-70
2021/05/11 02:22:57;;;;;;;4.23;3.93;;;11.90;99.90;;;;;;463026;254;28497;-70
2021/05/11 02:24:58;;;;;;;4.27;3.97;;;11.90;99.90;;;;;;476945;249;28263;-71
2021/05/11 02:26:59;;;;;;;4.07;3.77;;;11.90;99.90;;;;;;478241;249;28795;-71
2021/05/11 02:29:00;;;;;;;3.60;3.30;;;11.90;99.90;;;;;;478253;249;28413;-71
2021/05/11 02:31:02;;;;;;;3.67;3.37;;;11.90;99.90;;;;;;478223;249;28128;-70
2021/05/11 02:33:04;;;;;;;3.67;3.40;;;;;;;;;;478229;245;28354;-71
2021/05/11 02:35:05;;;;;;;4.77;4.37;;;11.90;99.90;;;;;;478205;248;27198;-71
2021/05/11 02:37:06;;;;;;;4.10;3.80;;;12.00;99.90;;;;;;478023;248;28446;-70
2021/05/11 02:39:08;;;;;;;3.93;3.63;;;12.00;99.90;;;;;;478267;248;28799;-71
2021/05/11 02:41:09;;;;;;;4.67;4.27;;;11.90;99.90;;;;;;478267;248;28034;-70
2021/05/11 02:43:17;;;;;;;3.87;3.57;;;11.90;99.90;;;;;;478277;248;27990;-70
2021/05/11 02:45:15;;;;;;;5.27;4.87;;;11.90;99.90;;;;;;478229;248;28527;-70
2021/05/11 02:47:16;;;;;;;5.90;5.40;;;11.90;99.90;;;;;;478258;248;28398;-71
2021/05/11 02:49:19;;;;;;;5.50;5.00;;;11.90;99.90;;;;;;478296;248;28220;-71
2021/05/11 02:51:18;;;;;;;4.87;4.47;;;11.90;99.90;;;;;;478247;248;28803;-70
2021/05/11 02:53:19;;;;;;;4.80;4.40;;;11.80;99.90;;;;;;478292;248;28052;-72
2021/05/11 02:55:21;;;;;;;5.57;4.37;;;11.80;99.90;;;;;;478265;248;28444;-71
2021/05/11 02:57:22;;;;;;;5.83;5.07;;;11.80;99.90;;;;;;478267;248;28842;-71
2021/05/11 02:59:23;;;;;;;10.93;7.10;;;11.80;99.90;;;;;;478288;248;28907;-71
2021/05/11 03:01:24;;;;;;;19.83;6.87;;;11.70;99.90;;;;;;478260;248;29563;-70
2021/05/11 03:03:26;;;;;;;7.27;6.57;;;11.60;99.90;;;;;;478294;248;30097;-70
2021/05/11 03:05:27;;;;;;;5.93;5.33;;;11.70;99.90;;;;;;478300;248;27992;-70
2021/05/11 03:07:28;;;;;;;6.57;5.87;;;11.70;99.90;;;;;;478291;248;28540;-72
2021/05/11 03:09:29;;;;;;;6.30;5.37;;;11.70;99.90;;;;;;478292;248;28336;-71
2021/05/11 03:11:31;;;;;;;7.40;6.60;;;11.70;99.90;;;;;;478280;248;28116;-71
2021/05/11 03:13:32;;;;;;;5.97;5.37;;;11.70;99.90;;;;;;478264;248;28888;-70
2021/05/11 03:15:33;;;;;;;5.73;5.20;;;11.70;99.90;;;;;;478266;248;28530;-70
2021/05/11 03:17:34;;;;;;;6.13;5.53;;;11.70;99.90;;;;;;478267;248;28554;-71
2021/05/11 03:19:36;;;;;;;6.60;6.00;;;11.60;99.90;;;;;;478269;248;28905;-70
2021/05/11 03:21:37;;;;;;;6.03;5.43;;;11.60;99.90;;;;;;478249;245;29355;-70
2021/05/11 03:23:38;;;;;;;5.33;4.83;;;11.60;99.90;;;;;;478272;248;29355;-72
2021/05/11 03:25:41;;;;;;;6.93;6.23;;;;;;;;;;478265;248;27989;-70
2021/05/11 03:27:42;;;;;;;5.77;4.73;;;11.60;99.90;;;;;;478279;248;26881;-70
2021/05/11 03:29:43;;;;;;;7.43;6.00;;;11.60;99.90;;;;;;478247;248;28309;-71
2021/05/11 03:31:44;;;;;;;5.13;4.63;;;11.60;99.90;;;;;;477882;248;29035;-70
2021/05/11 03:33:46;;;;;;;7.30;6.20;;;11.60;99.90;;;;;;478256;248;28560;-70
2021/05/11 03:35:47;;;;;;;6.00;5.40;;;11.60;99.90;;;;;;478241;248;28776;-72
2021/05/11 03:37:48;;;;;;;4.97;4.57;;;11.50;99.90;;;;;;478282;248;28084;-70
2021/05/11 03:39:49;;;;;;;6.70;5.47;;;11.50;99.90;;;;;;478273;248;28578;-71
2021/05/11 03:42:01;;;;;;;4.87;4.47;;;11.60;99.90;;;;;;478266;248;27971;-71
2021/05/11 03:44:04;;;;;;;4.87;4.47;;;11.60;99.90;;;;;;478205;248;28473;-71
2021/05/11 03:46:05;;;;;;;5.80;5.30;;;11.60;99.90;;;;;;478149;248;28437;-70
2021/05/11 03:48:00;;;;;;;6.27;4.87;;;11.50;99.90;;;;;;478168;248;28923;-70
2021/05/11 03:50:01;;;;;;;4.87;4.03;;;11.50;99.90;;;;;;478251;248;28366;-72
2021/05/11 03:52:03;;;;;;;4.93;4.50;;;11.50;99.90;;;;;;478232;248;28291;-70
2021/05/11 03:54:04;;;;;;;4.73;4.33;;;11.50;99.90;;;;;;478254;248;28367;-71
2021/05/11 03:56:05;;;;;;;4.60;4.10;;;11.40;99.90;;;;;;478256;248;28091;-70
2021/05/11 03:58:06;;;;;;;5.10;3.97;;;11.40;99.90;;;;;;478027;248;28390;-70
2021/05/11 04:00:08;;;;;;;4.23;3.90;;;11.50;99.90;;;;;;478267;248;28311;-71
2021/05/11 04:02:09;;;;;;;3.90;3.60;;;11.50;99.90;;;;;;478246;248;28235;-70
2021/05/11 04:04:10;;;;;;;4.03;3.70;;;11.50;99.90;;;;;;478192;248;28282;-70
2021/05/11 04:06:11;;;;;;;3.90;3.60;;;11.50;99.90;;;;;;477759;248;28866;-70
2021/05/11 04:08:13;;;;;;;3.83;3.53;;;11.40;99.90;;;;;;478198;248;29361;-70
2021/05/11 04:10:27;;;;;;;3.20;2.50;;;11.40;99.90;;;;;;478265;248;28834;-72
2021/05/11 04:16:54;;;;;;;3.90;3.60;;;11.40;99.90;;;;;;478248;248;28882;-72
2021/05/11 04:18:55;;;;;;;3.93;3.07;;;11.30;99.90;;;;;;478250;248;28444;-71
2021/05/11 04:20:57;;;;;;;3.60;3.30;;;11.30;99.90;;;;;;478230;248;28113;-71
2021/05/11 04:22:58;;;;;;;3.40;3.20;;;11.30;99.90;;;;;;478204;248;28390;-71
2021/05/11 04:24:59;;;;;;;2.77;2.57;;;11.40;99.90;;;;;;478227;248;28366;-70
2021/05/11 04:27:00;;;;;;;3.00;2.80;;;11.40;99.90;;;;;;478257;248;28422;-70
2021/05/11 04:29:02;;;;;;;3.20;3.00;;;11.50;99.90;;;;;;478279;248;28472;-71
2021/05/11 04:31:03;;;;;;;3.67;3.07;;;11.60;99.90;;;;;;478260;244;28179;-71
2021/05/11 04:33:04;;;;;;;2.90;2.70;;;11.70;99.90;;;;;;478262;248;28558;-70
2021/05/11 04:35:05;;;;;;;2.73;2.53;;;11.70;99.90;;;;;;478272;248;28499;-71
2021/05/11 04:37:07;;;;;;;2.90;2.70;;;11.70;99.90;;;;;;478279;248;30213;-70
2021/05/11 04:39:08;;;;;;;3.13;2.93;;;11.70;99.90;;;;;;478268;248;28787;-71
2021/05/11 04:41:09;;;;;;;3.10;2.80;;;11.70;99.90;;;;;;478213;248;29412;-70
2021/05/11 04:43:10;;;;;;;2.90;2.40;;;11.70;99.90;;;;;;478250;248;28316;-71
2021/05/11 04:45:15;;;;;;;3.10;2.80;;;11.70;99.90;;;;;;478170;248;28468;-70
2021/05/11 04:47:17;;;;;;;1.93;1.83;;;;;;;;;;478211;248;28897;-71
2021/05/11 04:49:15;;;;;;;2.43;2.33;;;11.80;99.90;;;;;;478063;248;27438;-72
2021/05/11 04:51:18;;;;;;;2.53;2.33;;;;;;;;;;478258;248;28855;-71
2021/05/11 04:53:19;;;;;;;3.03;2.83;;;11.80;99.90;;;;;;478259;248;27219;-70
2021/05/11 04:55:20;;;;;;;3.07;2.87;;;11.90;99.90;;;;;;478214;248;28495;-70
2021/05/11 04:57:21;;;;;;;3.57;3.10;;;12.00;99.90;;;;;;478261;248;28381;-71
2021/05/11 04:59:23;;;;;;;3.33;3.03;;;11.90;99.90;;;;;;478239;248;29257;-71
2021/05/11 05:01:24;;;;;;;2.87;2.67;;;11.90;99.90;;;;;;478254;248;28773;-71
2021/05/11 05:03:26;;;;;;;3.43;3.23;;;11.90;99.90;;;;;;478247;244;28821;-70
2021/05/11 05:05:26;;;;;;;3.37;3.13;;;11.90;99.90;;;;;;478237;248;28049;-70
2021/05/11 05:07:28;;;;;;;3.33;3.03;;;12.00;99.90;;;;;;478278;248;28855;-72
2021/05/11 05:09:30;;;;;;;2.40;2.30;;;;;;;;;;478271;248;28223;-72
2021/05/11 05:11:33;;;;;;;2.83;2.63;;;12.10;99.90;;;;;;478273;248;26542;-71
2021/05/11 05:13:33;;;;;;;2.67;2.47;;;12.10;99.90;;;;;;478165;248;29277;-71
2021/05/11 05:15:34;;;;;;;2.17;2.07;;;12.00;99.90;;;;;;478234;248;28586;-73
2021/05/11 05:17:35;;;;;;;2.70;2.50;;;12.00;99.90;;;;;;478272;248;28237;-70
2021/05/11 05:19:36;;;;;;;2.63;2.43;;;12.00;99.90;;;;;;478238;248;28239;-71
2021/05/11 05:21:39;;;;;;;2.87;2.67;;;12.00;99.90;;;;;;478273;248;28119;-70
2021/05/11 05:23:40;;;;;;;2.77;2.57;;;11.90;99.90;;;;;;478242;248;28361;-71
2021/05/11 05:25:43;;;;;;;2.10;2.00;;;;;;;;;;478224;245;28740;-70
2021/05/11 05:29:53;;;;;;;2.57;2.37;;;12.00;99.90;;;;;;474095;249;28523;-71
2021/05/11 05:31:54;;;;;;;2.10;2.00;;;12.00;99.90;;;;;;478235;248;28644;-71
2021/05/11 05:33:55;;;;;;;2.43;2.23;;;12.00;99.90;;;;;;478241;248;28243;-71
2021/05/11 05:35:56;;;;;;;1.90;1.80;;;12.10;99.90;;;;;;478241;248;28140;-72
2021/05/11 05:37:58;;;;;;;2.40;2.30;;;12.00;99.90;;;;;;478286;248;28257;-71
2021/05/11 05:40:01;;;;;;;3.27;2.90;;;12.00;99.90;;;;;;478282;248;29320;-71
2021/05/11 05:42:01;;;;;;;2.83;2.57;;;12.00;99.90;;;;;;478258;248;28781;-70
2021/05/11 05:44:01;;;;;;;2.40;2.27;;;12.00;99.90;;;;;;478274;248;28733;-70
2021/05/11 05:46:03;;;;;;;2.60;2.40;;;12.00;99.90;;;;;;478275;248;29271;-70
2021/05/11 05:48:04;;;;;;;2.40;2.30;;;11.90;99.90;;;;;;478285;248;28175;-70
2021/05/11 05:50:06;;;;;;;2.10;2.00;;;11.90;99.90;;;;;;477926;248;28349;-71
2021/05/11 05:52:09;;;;;;;2.17;2.07;;;11.90;99.90;;;;;;478223;248;28253;-70
2021/05/11 05:54:08;;;;;;;2.10;2.00;;;11.90;99.90;;;;;;478181;245;28280;-70
2021/05/11 05:56:09;;;;;;;2.27;2.17;;;12.00;99.90;;;;;;478238;248;28804;-70
2021/05/11 05:58:10;;;;;;;2.30;2.20;;;12.00;99.90;;;;;;478244;249;28513;-71
2021/05/11 06:00:15;;;;;;;2.80;2.60;;;12.00;99.90;;;;;;478254;249;28877;-71
2021/05/11 06:02:19;;;;;;;3.17;2.20;;;12.00;99.90;;;;;;478205;249;28749;-70
2021/05/11 06:04:17;;;;;;;2.20;2.00;;;12.00;99.90;;;;;;478172;249;28254;-70
2021/05/11 06:06:19;;;;;;;3.27;2.13;;;12.00;99.90;;;;;;478203;249;28609;-71
2021/05/11 06:08:19;;;;;;;3.73;2.10;;;11.90;99.90;;;;;;478208;248;28792;-72
2021/05/11 06:10:21;;;;;;;2.83;2.63;;;11.90;99.90;;;;;;478245;248;28105;-70
2021/05/11 06:12:50;;;;;;;2.80;2.60;;;12.00;99.90;;;;;;478256;248;29382;-71
2021/05/11 06:19:02;;;;;;;2.23;2.13;;;12.00;99.90;;;;;;478279;248;28837;-72
2021/05/11 06:21:05;;;;;;;2.97;2.43;;;;;;;;;;478273;248;28846;-70
2021/05/11 06:23:06;;;;;;;2.83;2.50;;;11.90;99.90;;;;;;478208;248;26885;-72
2021/05/11 06:25:07;;;;;;;2.53;2.13;;;11.90;99.90;;;;;;478285;248;28320;-71
2021/05/11 06:27:09;;;;;;;2.80;2.60;;;11.90;99.90;;;;;;478232;248;28802;-71
2021/05/11 06:29:10;;;;;;;2.80;2.53;;;11.80;99.90;;;;;;477945;248;28475;-70
2021/05/11 06:31:11;;;;;;;2.80;2.60;;;11.80;99.90;;;;;;478240;248;28687;-70
2021/05/11 06:33:12;;;;;;;5.13;2.47;;;11.80;99.90;;;;;;478232;248;29352;-69
2021/05/11 06:35:15;;;;;;;2.63;2.43;;;;;;;;;;478262;248;29027;-70
2021/05/11 06:37:16;;;;;;;3.20;3.00;;;11.80;99.90;;;;;;478269;245;26850;-70
2021/05/11 06:39:17;;;;;;;2.70;2.50;;;11.80;99.90;;;;;;478250;248;28374;-69
2021/05/11 06:41:19;;;;;;;3.47;3.17;;;11.80;99.90;;;;;;478262;248;29624;-69
2021/05/11 06:43:27;;;;;;;3.30;3.00;;;11.70;99.90;;;;;;478257;248;28679;-70
2021/05/11 06:50:35;;;;;;;2.77;2.57;;;11.90;99.90;;;;;;478236;248;28324;-70
2021/05/11 06:54:11;;;;;;;2.70;2.50;;;12.10;99.90;;;;;;478242;248;28295;-72
2021/05/11 06:56:14;;;;;;;2.63;2.30;;;12.20;99.90;;;;;;478260;248;29314;-70
2021/05/11 06:58:13;;;;;;;2.63;2.43;;;12.20;99.90;;;;;;478254;248;28672;-71
2021/05/11 07:00:16;;;;;;;2.97;2.70;;;;;;;;;;478275;248;29252;-70
2021/05/11 07:02:17;;;;;;;2.30;2.20;;;12.20;99.90;;;;;;478279;248;26562;-72
2021/05/11 07:04:18;;;;;;;2.37;2.27;;;12.20;99.90;;;;;;478253;248;28244;-70
2021/05/11 07:06:20;;;;;;;3.20;2.60;;;12.20;99.90;;;;;;478248;248;29210;-71
2021/05/11 07:10:31;;;;;;;2.63;2.43;;;;;;;;;;478262;248;28798;-72
2021/05/11 07:14:44;;;;;;;2.77;2.57;;;12.20;99.90;;;;;;478255;248;28175;-70
2021/05/11 07:16:45;;;;;;;2.90;2.70;;;12.20;99.90;;;;;;478252;248;29316;-70
2021/05/11 07:18:46;;;;;;;3.80;3.30;;;12.30;99.90;;;;;;478243;248;28712;-70
2021/05/11 07:20:48;;;;;;;3.33;3.13;;;12.30;99.90;;;;;;478294;245;28695;-72
2021/05/11 07:22:49;;;;;;;3.47;3.17;;;12.20;99.90;;;;;;478285;248;28707;-70
2021/05/11 07:24:56;;;;;;;4.33;4.03;;;12.20;99.90;;;;;;478270;248;28143;-70
2021/05/11 07:27:14;;;;;;;5.10;3.93;;;12.20;99.90;;;;;;478227;248;28629;-70
2021/05/11 07:29:13;;;;;;;3.57;3.27;;;12.10;99.90;;;;;;478011;248;28233;-70
2021/05/11 07:31:09;;;;;;;3.97;3.67;;;12.20;99.90;;;;;;478152;248;28243;-71
2021/05/11 07:33:11;;;;;;;4.20;3.90;;;12.20;99.90;;;;;;478263;248;28545;-70
2021/05/11 07:35:13;;;;;;;4.57;4.23;;;12.20;99.90;;;;;;478278;248;28560;-71
2021/05/11 07:37:13;;;;;;;4.37;3.97;;;12.30;99.90;;;;;;477937;248;28830;-70
2021/05/11 07:39:16;;;;;;;3.60;3.30;;;;;;;;;;478286;248;28802;-70
2021/05/11 07:41:17;;;;;;;4.13;3.83;;;12.20;99.90;;;;;;478279;248;26670;-70
2021/05/11 07:43:19;;;;;;;4.97;4.57;;;12.20;99.90;;;;;;478268;248;28802;-70
2021/05/11 07:48:43;;;;;;;5.60;5.10;;;12.30;99.90;;;;;;470741;252;28351;-70
2021/05/11 07:50:01;;;;;;;5.30;4.80;;;12.30;99.90;;;;;;470049;247;28083;-70
2021/05/11 08:10:20;;;;;;;6.30;5.70;;;12.70;99.90;;;;;;481891;247;28418;-72
2021/05/11 08:14:35;;;;;;;6.33;5.73;;;12.10;99.90;;;;;;481917;247;28744;-70
2021/05/11 08:16:30;;;;;;;5.73;4.50;;;12.10;99.90;;;;;;481809;247;28316;-70
2021/05/11 08:18:48;;;;;;;4.57;4.17;;;12.10;99.90;;;;;;481875;246;28418;-70
2021/05/11 08:23:32;;;;;;;6.17;5.60;;;12.30;99.90;;;;;;481925;247;28285;-71
2021/05/11 08:27:48;;;;;;;5.27;4.80;;;12.10;99.90;;;;;;481942;247;28228;-70
2021/05/11 08:29:48;;;;;;;4.07;3.77;;;;;;;;;;481869;247;28664;-70
2021/05/11 08:31:49;;;;;;;4.80;4.40;;;12.00;99.90;;;;;;481939;247;26936;-70
2021/05/11 08:33:50;;;;;;;5.00;4.30;;;12.00;99.90;;;;;;481901;247;28107;-71
2021/05/11 08:35:52;;;;;;;4.40;3.60;;;11.90;99.90;;;;;;481927;247;28189;-70
2021/05/11 08:37:53;;;;;;;4.90;3.73;;;11.90;99.90;;;;;;481936;247;28295;-71
2021/05/11 08:39:54;;;;;;;4.47;4.03;;;11.90;99.90;;;;;;481871;247;28879;-73
2021/05/11 08:41:55;;;;;;;4.80;4.40;;;11.90;99.90;;;;;;481942;247;29413;-71
2021/05/11 08:43:57;;;;;;;4.93;4.40;;;12.00;99.90;;;;;;481932;247;28806;-71
2021/05/11 08:45:58;;;;;;;5.13;4.63;;;11.80;99.90;;;;;;481938;247;28744;-70
2021/05/11 08:47:59;;;;;;;4.90;4.33;;;11.80;99.90;;;;;;481933;247;28090;-70
2021/05/11 08:50:01;;;;;;;4.63;4.23;;;11.90;99.90;;;;;;481927;247;28097;-72
2021/05/11 08:52:08;;;;;;;4.40;4.00;;;12.00;99.90;;;;;;481939;247;28044;-70
2021/05/11 08:54:31;;;;;;;3.90;3.60;;;12.10;99.90;;;;;;481819;247;28323;-70
2021/05/11 09:06:07;;;;;;;3.13;2.80;;;12.40;99.90;;;;;;481968;247;28510;-69
2021/05/11 09:07:53;;;;;;;3.77;3.13;;;12.50;99.90;;;;;;481564;247;28759;-70
2021/05/11 09:13:54;;;;;;;3.30;3.10;;;12.50;99.90;;;;;;481792;247;28542;-70
2021/05/11 09:23:30;;;;;;;3.20;3.00;;;12.40;99.90;;;;;;481919;247;28298;-70
2021/05/11 09:25:17;;;;;;;3.17;2.97;;;12.50;99.90;;;;;;481931;247;28332;-70
2021/05/11 09:29:20;;;;;;;3.63;3.40;;;12.60;99.90;;;;;;481925;246;28084;-70
2021/05/11 09:31:51;;;;;;;5.17;3.20;;;12.60;99.90;;;;;;481874;247;28782;-71
2021/05/11 09:33:41;;;;;;;3.30;3.10;;;12.60;99.90;;;;;;481567;247;28745;-70
2021/05/11 09:56:28;;;;;;;2.80;2.60;;;12.60;99.90;;;;;;481923;246;28273;-70
2021/05/11 09:58:41;;;;;;;3.07;2.27;;;12.80;99.90;;;;;;481696;247;28368;-70
2021/05/11 10:37:22;;;;;;;1.73;1.63;;;13.20;99.90;;;;;;481919;247;28329;-70
2021/05/11 10:39:07;;;;;;;1.87;1.77;;;13.20;99.90;;;;;;481589;247;28437;-71
2021/05/11 10:41:10;;;;;;;1.63;1.53;;;13.30;99.90;;;;;;481680;247;28504;-70
2021/05/11 10:48:59;;;;;;;1.57;1.47;;;13.20;99.90;;;;;;481928;247;28815;-71
2021/05/11 10:51:00;;;;;;;1.50;1.50;;;13.20;99.90;;;;;;481933;247;29232;-71
2021/05/11 10:53:02;;;;;;;3.73;1.60;;;13.20;99.90;;;;;;481951;247;29186;-70
2021/05/11 10:55:10;;;;;;;1.23;1.23;;;13.20;99.90;;;;;;481954;247;28611;-70
2021/05/11 10:57:07;;;;;;;1.80;1.70;;;13.10;99.90;;;;;;481924;247;28614;-70
2021/05/11 11:01:28;;;;;;;1.97;1.87;;;13.20;99.90;;;;;;481515;246;29721;-69
2021/05/11 11:03:29;;;;;;;2.00;1.80;;;13.20;99.90;;;;;;481887;247;29264;-69
2021/05/11 11:05:31;;;;;;;2.40;1.90;;;13.20;99.90;;;;;;481971;247;28634;-69
2021/05/11 11:07:32;;;;;;;2.33;2.23;;;13.20;99.90;;;;;;481975;247;28407;-69
2021/05/11 11:09:33;;;;;;;2.50;2.30;;;13.20;99.90;;;;;;481982;247;28426;-70
2021/05/11 11:11:36;;;;;;;2.17;2.07;;;13.20;99.90;;;;;;481951;246;28947;-70
2021/05/11 11:13:36;;;;;;;2.40;2.20;;;13.20;99.90;;;;;;481929;247;28602;-70
2021/05/11 11:15:37;;;;;;;2.07;1.97;;;13.20;99.90;;;;;;481936;247;28876;-70
2021/05/11 11:17:38;;;;;;;2.57;2.37;;;13.20;99.90;;;;;;481949;247;28565;-69
2021/05/11 11:19:39;;;;;;;2.90;2.70;;;13.20;99.90;;;;;;481909;247;28649;-69
2021/05/11 11:23:54;;;;;;;2.60;2.40;;;13.20;99.90;;;;;;481925;247;28524;-70
2021/05/11 11:25:52;;;;;;;2.63;2.43;;;13.10;99.90;;;;;;481822;247;28723;-69
2021/05/11 11:27:53;;;;;;;1.73;1.63;;;13.10;99.90;;;;;;481951;247;28215;-71
2021/05/11 11:29:55;;;;;;;2.17;2.07;;;13.10;99.90;;;;;;481951;247;28273;-69
2021/05/11 11:31:56;;;;;;;2.23;2.13;;;13.00;99.90;;;;;;481945;247;28285;-70
2021/05/11 11:33:57;;;;;;;2.30;2.20;;;13.00;99.90;;;;;;481944;247;28216;-69
2021/05/11 11:35:58;;;;;;;2.23;2.13;;;13.00;99.90;;;;;;481931;247;28172;-70
2021/05/11 11:38:00;;;;;;;1.90;1.80;;;13.00;99.90;;;;;;481944;247;28243;-70
2021/05/11 11:40:01;;;;;;;3.27;2.40;;;13.00;99.90;;;;;;481927;247;28374;-69
2021/05/11 11:42:02;;;;;;;2.80;2.60;;;13.00;99.90;;;;;;481932;247;28210;-70
2021/05/11 11:44:03;;;;;;;2.00;1.90;;;13.00;99.90;;;;;;481943;247;29865;-70
2021/05/11 11:46:05;;;;;;;1.77;1.67;;;13.00;99.90;;;;;;481911;247;28736;-70
2021/05/11 11:48:06;;;;;;;2.10;2.00;;;13.00;99.90;;;;;;481934;247;28696;-71
2021/05/11 11:50:08;;;;;;;1.93;1.80;;;13.00;99.90;;;;;;481904;247;28435;-70
2021/05/11 11:52:16;;;;;;;1.70;1.60;;;13.00;99.90;;;;;;481922;247;28423;-71
2021/05/11 11:56:38;;;;;;;5.63;5.03;;;13.00;99.90;;;;;;478000;247;28401;-70
2021/05/11 11:58:29;;;;;;;2.97;2.70;;;12.80;99.90;;;;;;481731;247;28993;-70
2021/05/11 12:00:28;;;;;;;2.70;2.50;;;12.70;99.90;;;;;;481885;247;28867;-72
2021/05/11 12:02:29;;;;;;;2.93;2.73;;;12.80;99.90;;;;;;481937;247;28388;-70
2021/05/11 12:04:31;;;;;;;2.73;2.53;;;12.90;99.90;;;;;;481903;247;28484;-70
2021/05/11 12:06:34;;;;;;;1.87;1.77;;;13.00;99.90;;;;;;481930;247;28402;-70
2021/05/11 12:08:33;;;;;;;2.00;1.80;;;13.00;99.90;;;;;;481818;247;28448;-70
2021/05/11 12:10:36;;;;;;;1.87;1.77;;;13.00;99.90;;;;;;481930;247;28448;-70
2021/05/11 12:12:36;;;;;;;2.00;1.90;;;13.20;99.90;;;;;;481905;247;28262;-70
2021/05/11 12:14:37;;;;;;;1.90;1.80;;;13.50;99.90;;;;;;481945;247;28482;-71
2021/05/11 12:16:38;;;;;;;1.63;1.53;;;13.70;99.90;;;;;;481957;247;28295;-70
2021/05/11 12:18:43;;;;;;;1.40;1.30;;;13.80;99.90;;;;;;481946;247;28503;-70
2021/05/11 12:20:41;;;;;;;1.77;1.67;;;13.80;99.90;;;;;;481887;247;29709;-70
2021/05/11 12:22:42;;;;;;;2.10;1.40;;;14.00;99.90;;;;;;481965;247;29278;-70
2021/05/11 12:24:44;;;;;;;1.40;1.40;;;14.10;99.90;;;;;;481983;247;29098;-71
2021/05/11 12:26:46;;;;;;;1.80;1.30;;;14.30;99.90;;;;;;481949;247;28813;-70
2021/05/11 12:28:46;;;;;;;1.53;1.20;;;14.50;99.90;;;;;;481941;247;28932;-71
2021/05/11 12:30:47;;;;;;;1.30;1.30;;;14.60;99.90;;;;;;481903;247;28846;-70
2021/05/11 12:32:48;;;;;;;1.33;1.33;;;14.60;99.90;;;;;;481895;247;28947;-72
2021/05/11 12:34:49;;;;;;;1.40;1.30;;;14.60;99.90;;;;;;481922;247;28858;-72
2021/05/11 12:36:51;;;;;;;1.30;1.20;;;14.60;99.90;;;;;;481945;247;28891;-71
2021/05/11 12:38:52;;;;;;;1.20;1.20;;;14.40;99.90;;;;;;481923;247;28859;-71
2021/05/11 12:42:57;;;;;;;1.17;1.17;;;14.30;99.90;;;;;;481952;247;28942;-70
2021/05/11 12:44:59;;;;;;;2.37;1.40;;;14.20;99.90;;;;;;481980;247;28904;-70
2021/05/11 12:47:00;;;;;;;1.40;1.20;;;14.20;99.90;;;;;;481972;247;28863;-72
2021/05/11 12:49:01;;;;;;;1.60;1.50;;;14.30;99.90;;;;;;481948;247;28820;-71
2021/05/11 12:51:02;;;;;;;1.13;1.13;;;14.30;99.90;;;;;;481975;247;28847;-70
2021/05/11 12:53:07;;;;;;;1.30;1.30;;;14.10;99.90;;;;;;481974;247;29263;-70
2021/05/11 12:55:13;;;;;;;1.33;1.10;;;14.10;99.90;;;;;;481887;247;29361;-70
2021/05/11 12:57:18;;;;;;;2.20;1.40;;;14.30;99.90;;;;;;481843;247;29415;-71
2021/05/11 12:59:15;;;;;;;1.27;1.20;;;14.50;99.90;;;;;;481876;247;28808;-70
2021/05/11 13:01:15;;;;;;;1.10;1.10;;;14.50;99.90;;;;;;481935;247;28864;-71
2021/05/11 13:03:32;;;;;;;1.43;1.30;;;14.40;99.90;;;;;;481950;247;28826;-70
2021/05/11 13:09:23;;;;;;;1.40;1.10;;;14.40;99.90;;;;;;481604;247;28834;-71
2021/05/11 13:16:25;;;;;;;1.20;1.20;;;14.30;99.90;;;;;;481926;247;28846;-71
2021/05/11 13:23:03;;;;;;;1.40;1.30;;;14.40;99.90;;;;;;481950;247;28845;-71
2021/05/11 13:29:12;;;;;;;1.27;1.27;;;14.50;99.90;;;;;;481944;247;28847;-70
2021/05/11 13:31:24;;;;;;;1.33;1.30;;;14.40;99.90;;;;;;481824;247;28827;-70
2021/05/11 13:33:23;;;;;;;1.40;1.30;;;14.40;99.90;;;;;;481618;247;29309;-71
2021/05/11 13:35:15;;;;;;;1.03;1.03;;;14.30;99.90;;;;;;481791;247;28945;-72
2021/05/11 13:37:17;;;;;;;1.30;1.20;;;14.20;99.90;;;;;;481956;247;28819;-70
2021/05/11 13:39:18;;;;;;;1.20;1.20;;;14.20;99.90;;;;;;481933;247;28920;-70
2021/05/11 13:41:19;;;;;;;1.17;1.17;;;14.20;99.90;;;;;;481945;247;28838;-70
2021/05/11 13:43:21;;;;;;;1.00;1.00;;;14.20;99.90;;;;;;481929;247;28894;-70
2021/05/11 13:45:24;;;;;;;1.40;1.30;;;14.20;99.90;;;;;;481755;247;28845;-72
2021/05/11 13:47:23;;;;;;;1.30;1.30;;;14.20;99.90;;;;;;481822;247;28899;-70
2021/05/11 13:49:24;;;;;;;1.40;1.17;;;14.10;99.90;;;;;;481845;247;28836;-71
2021/05/11 13:51:25;;;;;;;1.17;1.17;;;14.10;99.90;;;;;;481860;247;29263;-70
2021/05/11 13:53:28;;;;;;;1.27;1.17;;;14.20;99.90;;;;;;481897;247;29441;-70
2021/05/11 13:55:36;;;;;;;3.13;1.20;;;14.20;99.90;;;;;;481884;247;30076;-70
2021/05/11 14:04:28;;;;;;;1.20;1.20;;;14.40;99.90;;;;;;481929;247;29271;-70
2021/05/11 14:06:28;;;;;;;2.00;1.20;;;14.40;99.90;;;;;;481917;247;29348;-71
2021/05/11 14:08:30;;;;;;;1.40;1.27;;;14.40;99.90;;;;;;481909;247;29363;-70